createdAt,value
2019-01-15T00:03:06.784Z,12.33
2019-01-15T00:05:35.909Z,14.80
2019-01-15T00:08:23.943Z,17.27
2019-01-15T00:10:53.743Z,14.33
2019-01-15T00:13:23.474Z,15.47
2019-01-15T00:15:52.854Z,19.23
2019-01-15T00:18:41.588Z,15.60
2019-01-15T00:21:30.286Z,16.60
2019-01-15T00:26:39.712Z,15.57
2019-01-15T00:29:27.813Z,12.63
2019-01-15T00:32:15.835Z,21.53
2019-01-15T00:35:03.994Z,15.80
2019-01-15T00:37:33.985Z,15.40
2019-01-15T00:40:22.039Z,13.33
2019-01-15T00:43:10.043Z,22.47
2019-01-15T00:45:39.803Z,17.17
2019-01-15T00:48:41.672Z,13.27
2019-01-15T00:51:17.622Z,18.50
2019-01-15T00:54:06.384Z,9.17
2019-01-15T00:56:54.395Z,17.33
2019-01-15T00:59:23.707Z,12.67
2019-01-15T01:02:11.747Z,15.67
2019-01-15T01:04:59.780Z,16.77
2019-01-15T01:07:49.796Z,18.90
2019-01-15T01:10:38.462Z,19.83
2019-01-15T01:13:07.508Z,21.57
2019-01-15T01:15:55.514Z,17.57
2019-01-15T01:18:43.596Z,22.23
2019-01-15T01:21:31.632Z,16.30
2019-01-15T01:24:01.738Z,15.87
2019-01-15T01:26:49.800Z,20.70
2019-01-15T01:29:37.834Z,28.53
2019-01-15T01:32:07.109Z,19.63
2019-01-15T01:34:55.144Z,13.33
2019-01-15T01:37:43.199Z,17.33
2019-01-15T01:40:15.237Z,22.13
2019-01-15T01:43:03.542Z,21.50
2019-01-15T01:45:53.092Z,12.50
2019-01-15T01:48:41.755Z,14.90
2019-01-15T01:51:29.789Z,20.00
2019-01-15T01:54:17.785Z,17.73
2019-01-15T02:03:19.945Z,21.87
2019-01-15T02:06:07.945Z,22.70
2019-01-15T02:08:55.979Z,20.03
2019-01-15T02:11:25.289Z,26.40
2019-01-15T02:14:13.311Z,22.70
2019-01-15T02:17:01.306Z,28.13
2019-01-15T02:19:31.072Z,20.17
2019-01-15T02:22:19.152Z,26.73
2019-01-15T02:24:48.893Z,30.40
2019-01-15T02:33:36.294Z,23.00
2019-01-15T02:36:37.569Z,23.17
2019-01-15T02:39:14.041Z,22.70
2019-01-15T02:42:02.073Z,23.53
2019-01-15T02:44:31.374Z,20.57
2019-01-15T02:47:09.551Z,18.83
2019-01-15T02:52:26.513Z,18.97
2019-01-15T02:55:14.517Z,21.07
2019-01-15T02:58:02.599Z,21.10
2019-01-15T03:00:31.612Z,22.50
2019-01-15T03:03:19.647Z,25.83
2019-01-15T03:06:08.376Z,19.90
2019-01-15T03:08:56.511Z,15.80
2019-01-15T03:11:44.570Z,18.67
2019-01-15T03:14:13.899Z,18.43
2019-01-15T03:17:01.899Z,19.33
2019-01-15T03:19:49.938Z,17.03
2019-01-15T03:25:47.696Z,16.80
2019-01-15T03:28:35.695Z,23.63
2019-01-15T03:31:23.725Z,19.07
2019-01-15T03:37:17.063Z,27.60
2019-01-15T03:39:46.750Z,21.87
2019-01-15T03:43:20.161Z,22.20
2019-01-15T03:45:49.866Z,23.50
2019-01-15T03:48:38.589Z,23.27
2019-01-15T03:54:25.722Z,28.07
2019-01-15T03:59:43.409Z,27.93
2019-01-15T04:11:05.743Z,32.40
2019-01-15T04:13:34.841Z,31.20
2019-01-15T04:16:22.873Z,26.50
2019-01-15T04:19:24.571Z,32.30
2019-01-15T04:24:27.941Z,26.67
2019-01-15T04:32:36.993Z,30.03
2019-01-15T04:35:15.621Z,26.90
2019-01-15T04:37:47.247Z,26.97
2019-01-15T04:40:35.304Z,28.10
2019-01-15T04:43:23.293Z,30.03
2019-01-15T04:46:11.209Z,25.53
2019-01-15T04:48:59.230Z,24.50
2019-01-15T04:57:26.060Z,28.00
2019-01-15T05:05:33.760Z,28.53
2019-01-15T05:08:21.792Z,27.17
2019-01-15T05:11:09.780Z,26.47
2019-01-15T05:13:58.519Z,24.80
2019-01-15T05:16:47.197Z,27.17
2019-01-15T05:19:35.221Z,22.87
2019-01-15T05:22:23.207Z,24.10
2019-01-15T05:25:30.169Z,25.40
2019-01-15T05:28:18.846Z,23.97
2019-01-15T05:30:48.916Z,19.73
2019-01-15T05:33:19.611Z,21.03
2019-01-15T05:35:49.316Z,22.17
2019-01-15T05:38:37.343Z,23.60
2019-01-15T05:41:25.339Z,23.30
2019-01-15T05:43:55.372Z,21.00
2019-01-15T05:46:43.364Z,22.83
2019-01-15T05:49:13.422Z,20.47
2019-01-15T05:51:44.428Z,20.37
2019-01-15T05:54:22.640Z,19.97
2019-01-15T05:59:40.555Z,15.63
2019-01-15T06:04:58.347Z,17.13
2019-01-15T06:07:48.698Z,17.63
2019-01-15T06:10:18.433Z,14.80
2019-01-15T06:13:06.460Z,15.97
2019-01-15T06:15:54.608Z,12.00
2019-01-15T06:18:24.540Z,11.27
2019-01-15T06:20:53.553Z,12.93
2019-01-15T06:23:22.596Z,13.73
2019-01-15T06:25:52.169Z,11.93
2019-01-15T06:28:21.852Z,15.27
2019-01-15T06:30:50.913Z,13.83
2019-01-15T06:33:39.170Z,16.03
2019-01-15T06:36:09.011Z,15.37
2019-01-15T06:38:38.704Z,13.87
2019-01-15T06:41:07.990Z,15.83
2019-01-15T06:43:37.711Z,15.10
2019-01-15T06:46:07.423Z,18.60
2019-01-15T06:48:37.149Z,24.33
2019-01-15T06:51:44.097Z,16.97
2019-01-15T06:54:14.292Z,19.23
2019-01-15T06:56:44.013Z,19.20
2019-01-15T06:59:13.963Z,19.57
2019-01-15T07:01:43.944Z,20.10
2019-01-15T07:04:13.739Z,23.47
2019-01-15T07:06:43.483Z,20.33
2019-01-15T07:09:32.162Z,24.93
2019-01-15T07:12:02.427Z,18.47
2019-01-15T07:14:31.455Z,22.43
2019-01-15T07:17:20.039Z,23.70
2019-01-15T07:19:49.346Z,24.80
2019-01-15T07:22:37.378Z,23.80
2019-01-15T07:25:25.393Z,24.50
2019-01-15T07:27:54.487Z,23.63
2019-01-15T07:30:42.824Z,25.40
2019-01-15T07:33:30.860Z,28.33
2019-01-15T07:36:00.201Z,22.83
2019-01-15T07:38:29.920Z,25.80
2019-01-15T07:40:58.984Z,26.73
2019-01-15T07:43:47.656Z,23.97
2019-01-15T07:46:17.402Z,25.97
2019-01-15T07:48:47.370Z,25.20
2019-01-15T07:51:17.060Z,35.33
2019-01-15T07:53:46.799Z,31.47
2019-01-15T07:56:16.759Z,33.90
2019-01-15T07:58:46.475Z,29.50
2019-01-15T08:03:58.377Z,29.67
2019-01-15T08:06:28.069Z,28.40
2019-01-15T08:09:08.803Z,25.20
2019-01-15T08:11:28.731Z,33.93
2019-01-15T08:13:58.450Z,27.80
2019-01-15T08:19:26.191Z,30.03
2019-01-15T08:21:55.904Z,26.70
2019-01-15T08:24:25.184Z,30.80
2019-01-15T08:26:57.306Z,32.03
2019-01-15T08:29:45.375Z,31.33
2019-01-15T08:32:32.733Z,32.13
2019-01-15T08:35:02.341Z,33.53
2019-01-15T08:37:32.057Z,37.00
2019-01-15T08:40:09.337Z,34.67
2019-01-15T08:42:57.340Z,32.70
2019-01-15T08:48:41.471Z,29.80
2019-01-15T08:51:14.338Z,39.97
2019-01-15T08:54:02.511Z,33.27
2019-01-15T08:56:31.566Z,32.13
2019-01-15T09:01:53.904Z,43.17
2019-01-15T09:04:23.608Z,33.00
2019-01-15T09:07:32.064Z,27.83
2019-01-15T09:10:03.128Z,31.10
2019-01-15T09:12:33.083Z,28.53
2019-01-15T09:15:02.443Z,38.33
2019-01-15T09:17:32.152Z,32.20
2019-01-15T09:20:02.379Z,31.83
2019-01-15T09:22:31.434Z,35.87
2019-01-15T09:25:01.294Z,28.93
2019-01-15T09:27:30.610Z,31.30
2019-01-15T09:30:00.468Z,34.20
2019-01-15T09:32:32.891Z,37.53
2019-01-15T09:35:04.316Z,31.10
2019-01-15T09:37:37.053Z,32.70
2019-01-15T09:40:08.276Z,26.77
2019-01-15T09:42:37.319Z,30.47
2019-01-15T09:45:09.110Z,29.17
2019-01-15T09:47:50.755Z,27.77
2019-01-15T09:50:20.711Z,29.53
2019-01-15T09:52:49.722Z,26.67
2019-01-15T09:55:19.655Z,26.13
2019-01-15T09:57:49.635Z,19.60
2019-01-15T10:00:20.204Z,22.67
2019-01-15T10:02:49.425Z,20.67
2019-01-15T10:05:19.407Z,22.03
2019-01-15T10:07:54.636Z,19.70
2019-01-15T10:10:24.347Z,21.13
2019-01-15T10:12:56.927Z,23.70
2019-01-15T10:15:25.992Z,24.67
2019-01-15T10:18:00.355Z,20.10
2019-01-15T10:20:29.409Z,17.53
2019-01-15T10:23:04.324Z,21.50
2019-01-15T10:25:33.747Z,20.73
2019-01-15T10:28:06.803Z,16.07
2019-01-15T10:31:21.300Z,21.73
2019-01-15T10:33:56.060Z,17.33
2019-01-15T10:36:24.212Z,13.23
2019-01-15T10:38:53.263Z,16.17
2019-01-15T10:41:22.955Z,16.27
2019-01-15T10:43:52.920Z,11.50
2019-01-15T10:46:22.177Z,19.30
2019-01-15T10:48:52.176Z,17.47
2019-01-15T10:51:21.474Z,12.77
2019-01-15T10:53:50.539Z,16.40
2019-01-15T10:56:22.471Z,14.87
2019-01-15T10:58:52.460Z,10.93
2019-01-15T11:01:28.069Z,14.97
2019-01-15T11:03:58.022Z,9.10
2019-01-15T11:06:28.460Z,10.07
2019-01-15T11:08:58.182Z,13.30
2019-01-15T11:11:32.096Z,11.77
2019-01-15T11:14:01.136Z,8.70
2019-01-15T11:16:34.180Z,10.47
2019-01-15T11:19:03.889Z,10.67
2019-01-15T11:21:36.916Z,9.73
2019-01-15T11:24:06.039Z,14.33
2019-01-15T11:26:40.433Z,8.73
2019-01-15T11:29:12.428Z,10.13
2019-01-15T11:31:42.646Z,10.23
2019-01-15T11:34:12.398Z,10.93
2019-01-15T11:36:45.374Z,11.47
2019-01-15T11:39:15.120Z,9.97
2019-01-15T11:41:48.015Z,7.90
2019-01-15T11:44:19.130Z,8.00
2019-01-15T11:46:51.741Z,6.10
2019-01-15T11:49:23.907Z,8.73
2019-01-15T11:52:11.966Z,10.07
2019-01-15T11:55:00.749Z,8.07
2019-01-15T11:57:29.787Z,9.43
2019-01-15T12:03:04.842Z,13.60
2019-01-15T12:06:02.029Z,8.07
2019-01-15T12:09:00.287Z,9.20
2019-01-15T12:11:49.369Z,6.13
2019-01-15T12:18:12.551Z,5.30
2019-01-15T12:24:42.623Z,8.13
2019-01-15T12:31:12.811Z,12.80
2019-01-15T12:37:08.900Z,8.60
2019-01-15T12:43:40.436Z,9.43
2019-01-15T12:46:47.356Z,6.10
2019-01-15T12:49:54.495Z,4.80
2019-01-15T12:53:01.470Z,6.13
2019-01-15T12:56:08.428Z,4.37
2019-01-15T12:59:15.364Z,4.63
2019-01-15T13:05:48.745Z,5.17
2019-01-15T13:11:39.031Z,6.80
2019-01-15T13:14:16.921Z,9.20
2019-01-15T13:17:23.848Z,10.17
2019-01-15T13:20:30.841Z,4.77
2019-01-15T13:26:54.529Z,9.40
2019-01-15T13:29:46.557Z,9.00
2019-01-15T13:32:26.708Z,5.13
2019-01-15T13:35:13.948Z,7.27
2019-01-15T13:38:02.964Z,6.27
2019-01-15T13:40:59.947Z,9.23
2019-01-15T13:44:06.901Z,7.20
2019-01-15T13:47:13.815Z,7.47
2019-01-15T13:50:20.764Z,6.67
2019-01-15T13:56:01.458Z,6.63
2019-01-15T13:59:11.093Z,11.27
2019-01-15T14:02:18.456Z,4.47
2019-01-15T14:05:09.771Z,4.70
2019-01-15T14:07:56.748Z,9.00
2019-01-15T14:10:50.836Z,9.00
2019-01-15T14:13:45.870Z,10.43
2019-01-15T14:16:44.641Z,8.53
2019-01-15T14:19:38.681Z,3.87
2019-01-15T14:22:25.821Z,6.23
2019-01-15T14:25:13.417Z,6.10
2019-01-15T14:27:55.621Z,10.20
2019-01-15T14:30:35.949Z,6.37
2019-01-15T14:33:26.134Z,8.30
2019-01-15T14:36:13.693Z,4.87
2019-01-15T14:39:13.345Z,4.47
2019-01-15T14:42:20.309Z,7.73
2019-01-15T14:48:53.172Z,10.03
2019-01-15T14:52:00.080Z,8.20
2019-01-15T14:55:07.146Z,6.70
2019-01-15T14:58:14.072Z,8.00
2019-01-15T15:01:21.366Z,10.60
2019-01-15T15:04:28.288Z,6.37
2019-01-15T15:07:35.278Z,7.83
2019-01-15T15:12:52.931Z,12.03
2019-01-15T15:18:10.533Z,8.83
2019-01-15T15:21:17.440Z,8.93
2019-01-15T15:24:24.400Z,12.83
2019-01-15T15:27:31.314Z,9.00
2019-01-15T15:30:18.806Z,9.83
2019-01-15T15:33:25.724Z,12.00
2019-01-15T15:36:32.672Z,9.53
2019-01-15T15:39:39.609Z,8.63
2019-01-15T15:42:46.555Z,10.43
2019-01-15T15:45:53.475Z,10.03
2019-01-15T15:49:05.344Z,8.27
2019-01-15T15:51:53.924Z,9.80
2019-01-15T15:55:00.878Z,11.53
2019-01-15T15:57:49.451Z,8.63
2019-01-15T16:00:56.397Z,7.80
2019-01-15T16:04:03.321Z,8.67
2019-01-15T16:07:00.166Z,6.50
2019-01-15T16:12:32.648Z,7.73
2019-01-15T16:15:39.565Z,7.23
2019-01-15T16:18:46.582Z,7.90
2019-01-15T16:21:53.575Z,5.90
2019-01-15T16:25:01.206Z,10.97
2019-01-15T16:27:49.758Z,4.73
2019-01-15T16:30:56.696Z,10.23
2019-01-15T16:34:03.669Z,7.33
2019-01-15T16:37:10.624Z,6.90
2019-01-15T16:40:17.556Z,6.10
2019-01-15T16:43:04.966Z,4.53
2019-01-15T16:46:11.888Z,12.90
2019-01-15T16:49:18.836Z,7.23
2019-01-15T16:52:25.755Z,26.37
2019-01-15T16:55:32.700Z,5.27
2019-01-15T17:01:46.852Z,4.77
2019-01-15T17:04:53.769Z,7.00
2019-01-15T17:07:47.459Z,8.77
2019-01-15T17:11:13.948Z,8.47
2019-01-15T17:16:59.846Z,9.40
2019-01-15T17:19:45.464Z,10.20
2019-01-15T17:26:00.280Z,10.10
2019-01-15T17:29:07.197Z,6.63
2019-01-15T17:32:14.152Z,8.43
2019-01-15T17:35:21.077Z,10.87
2019-01-15T17:38:21.622Z,11.67
2019-01-15T17:41:09.574Z,14.23
2019-01-15T17:44:12.626Z,11.03
2019-01-15T17:47:00.613Z,8.17
2019-01-15T17:49:51.419Z,10.27
2019-01-15T17:52:47.598Z,9.50
2019-01-15T17:55:51.658Z,10.83
2019-01-15T17:58:41.332Z,10.57
2019-01-15T18:01:29.736Z,8.73
2019-01-15T18:04:27.218Z,10.10
2019-01-15T18:07:23.245Z,11.03
2019-01-15T18:10:23.008Z,11.97
2019-01-15T18:13:23.754Z,9.90
2019-01-15T18:16:06.486Z,9.77
2019-01-15T18:18:55.451Z,11.33
2019-01-15T18:21:54.376Z,9.63
2019-01-15T18:24:44.261Z,9.27
2019-01-15T18:27:32.700Z,10.37
2019-01-15T18:30:20.718Z,15.13
2019-01-15T18:33:07.197Z,14.13
2019-01-15T18:35:52.510Z,11.03
2019-01-15T18:38:39.134Z,13.73
2019-01-15T18:41:26.507Z,13.70
2019-01-15T18:44:24.372Z,12.93
2019-01-15T18:47:11.320Z,11.80
2019-01-15T18:50:05.686Z,12.27
2019-01-15T18:53:09.190Z,13.23
2019-01-15T18:56:03.302Z,12.50
2019-01-15T18:58:51.611Z,8.87
2019-01-15T19:01:39.615Z,12.37
2019-01-15T19:04:26.623Z,11.10
2019-01-15T19:07:35.768Z,10.57
2019-01-15T19:10:24.433Z,10.33
2019-01-15T19:13:10.879Z,9.70
2019-01-15T19:15:53.903Z,11.77
2019-01-15T19:18:47.714Z,11.47
2019-01-15T19:21:45.554Z,8.50
2019-01-15T19:24:34.149Z,13.13
2019-01-15T19:27:32.337Z,10.53
2019-01-15T19:30:19.458Z,9.33
2019-01-15T19:33:20.712Z,10.03
2019-01-15T19:36:08.053Z,9.40
2019-01-15T19:38:56.560Z,9.80
2019-01-15T19:41:43.462Z,11.67
2019-01-15T19:44:36.123Z,8.37
2019-01-15T19:47:22.880Z,9.80
2019-01-15T19:50:14.087Z,9.87
2019-01-15T19:53:05.964Z,9.63
2019-01-15T19:55:54.268Z,13.57
2019-01-15T19:58:44.828Z,12.43
2019-01-15T20:01:36.047Z,13.13
2019-01-15T20:04:27.562Z,15.67
2019-01-15T20:07:14.437Z,13.50
2019-01-15T20:10:21.202Z,10.90
2019-01-15T20:13:09.568Z,7.63
2019-01-15T20:16:05.024Z,11.93
2019-01-15T20:19:03.315Z,13.47
2019-01-15T20:21:56.202Z,12.83
2019-01-15T20:24:55.248Z,11.73
2019-01-15T20:27:32.428Z,8.07
2019-01-15T20:30:21.393Z,8.80
2019-01-15T20:33:09.990Z,7.40
2019-01-15T20:36:03.449Z,9.63
2019-01-15T20:38:52.027Z,9.53
2019-01-15T20:41:52.978Z,10.13
2019-01-15T20:44:49.573Z,7.40
2019-01-15T20:47:37.866Z,8.50
2019-01-15T20:50:34.880Z,7.43
2019-01-15T20:53:22.299Z,7.77
2019-01-15T20:56:12.349Z,7.83
2019-01-15T20:59:01.256Z,8.43
2019-01-15T21:01:40.552Z,8.30
2019-01-15T21:04:27.451Z,7.27
2019-01-15T21:07:27.531Z,9.70
2019-01-15T21:10:12.561Z,7.20
2019-01-15T21:13:15.721Z,6.07
2019-01-15T21:15:58.056Z,10.00
2019-01-15T21:21:22.778Z,7.00
2019-01-15T21:26:40.241Z,5.77
2019-01-15T21:32:00.669Z,5.93
2019-01-15T21:37:28.052Z,5.57
2019-01-15T21:40:34.980Z,5.13
2019-01-15T21:43:41.935Z,5.67
2019-01-15T21:46:38.843Z,7.00
2019-01-15T21:49:45.785Z,6.20
2019-01-15T21:52:54.751Z,6.00
2019-01-15T21:55:47.493Z,5.50
2019-01-15T21:58:36.124Z,6.57
2019-01-15T22:01:38.029Z,6.20
2019-01-15T22:04:44.989Z,6.20
2019-01-15T22:07:51.932Z,5.83
2019-01-15T22:13:49.799Z,6.10
2019-01-15T22:16:56.703Z,6.50
2019-01-15T22:19:35.068Z,7.50
2019-01-15T22:22:23.619Z,6.17
2019-01-15T22:25:28.344Z,6.80
2019-01-15T22:28:35.268Z,8.47
2019-01-15T22:31:30.095Z,7.43
2019-01-15T22:34:37.064Z,5.87
2019-01-15T22:37:25.304Z,5.90
2019-01-15T22:40:22.496Z,5.87
2019-01-15T22:43:10.859Z,6.67
2019-01-15T22:46:17.784Z,5.57
2019-01-15T22:49:06.015Z,6.37
2019-01-15T22:52:12.936Z,5.93
2019-01-15T22:55:21.896Z,6.13
2019-01-15T22:58:09.913Z,6.60
2019-01-15T23:01:16.861Z,7.43
2019-01-15T23:04:23.884Z,7.40
2019-01-15T23:07:30.915Z,6.33
2019-01-15T23:10:37.945Z,5.77
2019-01-15T23:16:46.679Z,7.83
2019-01-15T23:19:53.737Z,7.17
2019-01-15T23:22:59.943Z,7.50
2019-01-15T23:25:48.950Z,5.47
2019-01-15T23:28:45.652Z,6.70
2019-01-15T23:31:53.462Z,6.60
2019-01-15T23:35:08.428Z,10.43
2019-01-15T23:37:56.979Z,7.50
2019-01-15T23:41:04.065Z,8.30
2019-01-15T23:44:11.119Z,5.93
2019-01-15T23:47:18.234Z,8.67
2019-01-15T23:50:06.511Z,6.10
2019-01-15T23:53:13.611Z,7.37
2019-01-15T23:56:21.425Z,6.10
2019-01-15T23:59:10.343Z,6.87
